Terminal Aerodrome Forecast
Issued by NWS Cheyenne, WY

Home | Current Version | Previous Version | Text Only | Print | Product List | Glossary On
Versions: 1 2 3 4 5 6 7 8 9 10 11 12 13 14 15 16 17 18 19 20 21 22 23 24 25 26 27 28 29 30 31 32 33 34 35
000
FTUS45 KCYS 020955 AAA
TAFCYS
TAF AMD
KCYS 020955Z 0210/0306 36010G15KT P6SM VCTS BKN100CB
      TEMPO 0210/0212 06020G30KT TSRA BKN008CB
     FM021200 36011KT P6SM SCT050
     FM022000 05010G17KT P6SM VCTS BKN080CB=

USA.gov is the U.S. government's official web portal to all federal, state and local government web resources and services.